sensor_id;sensor_type;location;lat;lon;timestamp;pressure;altitude;pressure_sealevel;temperature;humidity
31681;BME280;18281;51.364;9.566;2023-06-22T00:06:19;100270.41;;;18.14;100.00
31681;BME280;18281;51.364;9.566;2023-06-22T00:26:45;100263.25;;;17.93;100.00
31681;BME280;18281;51.364;9.566;2023-06-22T00:29:13;100261.56;;;17.92;100.00
31681;BME280;18281;51.364;9.566;2023-06-22T02:55:27;100281.75;;;17.17;100.00
31681;BME280;18281;51.364;9.566;2023-06-22T02:58:12;100276.44;;;17.17;100.00
31681;BME280;18281;51.364;9.566;2023-06-22T03:07:21;100272.34;;;17.13;100.00
31681;BME280;18281;51.364;9.566;2023-06-22T03:13:27;100268.81;;;17.13;100.00
31681;BME280;18281;51.364;9.566;2023-06-22T04:14:52;100214.44;;;18.27;100.00
31681;BME280;18281;51.364;9.566;2023-06-22T04:35:03;100199.97;;;18.20;100.00
31681;BME280;18281;51.364;9.566;2023-06-22T04:37:32;100203.03;;;18.15;100.00
31681;BME280;18281;51.364;9.566;2023-06-22T04:40:01;100207.25;;;18.06;100.00
31681;BME280;18281;51.364;9.566;2023-06-22T04:42:28;100215.31;;;17.95;100.00
31681;BME280;18281;51.364;9.566;2023-06-22T04:44:54;100220.41;;;17.87;100.00
31681;BME280;18281;51.364;9.566;2023-06-22T04:47:23;100220.69;;;18.05;100.00
31681;BME280;18281;51.364;9.566;2023-06-22T04:49:48;100219.44;;;18.09;100.00
31681;BME280;18281;51.364;9.566;2023-06-22T04:52:14;100223.72;;;18.00;100.00
31681;BME280;18281;51.364;9.566;2023-06-22T04:54:43;100209.78;;;18.08;100.00
31681;BME280;18281;51.364;9.566;2023-06-22T04:57:12;100209.69;;;18.09;100.00
31681;BME280;18281;51.364;9.566;2023-06-22T04:59:38;100207.41;;;18.05;100.00
31681;BME280;18281;51.364;9.566;2023-06-22T05:02:07;100210.47;;;18.00;100.00
31681;BME280;18281;51.364;9.566;2023-06-22T05:04:33;100200.28;;;18.05;100.00
31681;BME280;18281;51.364;9.566;2023-06-22T05:07:01;100204.69;;;17.95;100.00
31681;BME280;18281;51.364;9.566;2023-06-22T05:09:27;100208.44;;;17.92;100.00
31681;BME280;18281;51.364;9.566;2023-06-22T05:11:53;100201.16;;;17.94;100.00
31681;BME280;18281;51.364;9.566;2023-06-22T05:14:18;100203.38;;;17.89;100.00
31681;BME280;18281;51.364;9.566;2023-06-22T05:16:45;100194.88;;;17.74;100.00
31681;BME280;18281;51.364;9.566;2023-06-22T05:19:11;100198.84;;;17.80;100.00
31681;BME280;18281;51.364;9.566;2023-06-22T05:21:36;100181.88;;;17.92;100.00
31681;BME280;18281;51.364;9.566;2023-06-22T05:24:02;100187.13;;;17.83;100.00
31681;BME280;18281;51.364;9.566;2023-06-22T05:26:34;100185.31;;;17.83;100.00
31681;BME280;18281;51.364;9.566;2023-06-22T05:29:02;100185.63;;;17.90;100.00
31681;BME280;18281;51.364;9.566;2023-06-22T05:31:28;100183.88;;;17.79;100.00
31681;BME280;18281;51.364;9.566;2023-06-22T05:34:13;100184.06;;;17.87;100.00
31681;BME280;18281;51.364;9.566;2023-06-22T05:36:38;100174.22;;;17.99;100.00
31681;BME280;18281;51.364;9.566;2023-06-22T05:39:14;100180.47;;;18.09;100.00
31681;BME280;18281;51.364;9.566;2023-06-22T05:41:40;100180.66;;;18.18;100.00
31681;BME280;18281;51.364;9.566;2023-06-22T05:44:05;100188.00;;;18.25;100.00
31681;BME280;18281;51.364;9.566;2023-06-22T05:51:34;100189.22;;;17.68;100.00
31681;BME280;18281;51.364;9.566;2023-06-22T05:54:00;100191.97;;;17.77;100.00
31681;BME280;18281;51.364;9.566;2023-06-22T05:56:25;100194.03;;;17.74;100.00
31681;BME280;18281;51.364;9.566;2023-06-22T05:58:50;100188.00;;;17.93;100.00
31681;BME280;18281;51.364;9.566;2023-06-22T06:01:16;100186.72;;;18.08;100.00
31681;BME280;18281;51.364;9.566;2023-06-22T06:03:42;100186.59;;;18.10;100.00
31681;BME280;18281;51.364;9.566;2023-06-22T06:06:07;100192.88;;;18.09;100.00
31681;BME280;18281;51.364;9.566;2023-06-22T06:08:33;100186.53;;;18.21;100.00
31681;BME280;18281;51.364;9.566;2023-06-22T06:10:58;100184.94;;;18.30;100.00
31681;BME280;18281;51.364;9.566;2023-06-22T06:13:24;100183.31;;;18.39;100.00
31681;BME280;18281;51.364;9.566;2023-06-22T06:15:49;100194.31;;;18.34;100.00
31681;BME280;18281;51.364;9.566;2023-06-22T06:18:16;100187.81;;;18.48;100.00
31681;BME280;18281;51.364;9.566;2023-06-22T06:20:42;100196.72;;;18.37;100.00
31681;BME280;18281;51.364;9.566;2023-06-22T06:23:07;100201.19;;;18.37;100.00
31681;BME280;18281;51.364;9.566;2023-06-22T06:25:33;100207.09;;;18.40;100.00
31681;BME280;18281;51.364;9.566;2023-06-22T06:27:58;100198.44;;;18.48;100.00
31681;BME280;18281;51.364;9.566;2023-06-22T06:30:24;100194.03;;;18.58;100.00
31681;BME280;18281;51.364;9.566;2023-06-22T06:32:49;100194.31;;;18.65;100.00
31681;BME280;18281;51.364;9.566;2023-06-22T06:35:15;100197.13;;;18.64;100.00
31681;BME280;18281;51.364;9.566;2023-06-22T06:37:48;100200.19;;;18.59;100.00
31681;BME280;18281;51.364;9.566;2023-06-22T06:40:14;100203.56;;;18.61;100.00
31681;BME280;18281;51.364;9.566;2023-06-22T06:42:42;100204.31;;;18.42;100.00
31681;BME280;18281;51.364;9.566;2023-06-22T06:45:17;100204.81;;;18.36;100.00
31681;BME280;18281;51.364;9.566;2023-06-22T06:47:43;100203.06;;;18.46;100.00
31681;BME280;18281;51.364;9.566;2023-06-22T06:50:09;100201.31;;;18.56;100.00
31681;BME280;18281;51.364;9.566;2023-06-22T06:52:35;100202.13;;;18.57;100.00
31681;BME280;18281;51.364;9.566;2023-06-22T06:55:00;100197.41;;;18.60;100.00
31681;BME280;18281;51.364;9.566;2023-06-22T06:57:26;100188.34;;;18.73;100.00
31681;BME280;18281;51.364;9.566;2023-06-22T06:59:54;100186.03;;;18.89;100.00
31681;BME280;18281;51.364;9.566;2023-06-22T07:02:20;100182.72;;;18.97;100.00
31681;BME280;18281;51.364;9.566;2023-06-22T07:04:46;100179.66;;;19.02;100.00
31681;BME280;18281;51.364;9.566;2023-06-22T07:07:12;100177.69;;;19.04;100.00
31681;BME280;18281;51.364;9.566;2023-06-22T07:09:37;100183.97;;;18.93;100.00
31681;BME280;18281;51.364;9.566;2023-06-22T07:12:02;100180.50;;;19.12;100.00
31681;BME280;18281;51.364;9.566;2023-06-22T07:14:28;100183.50;;;19.29;100.00
31681;BME280;18281;51.364;9.566;2023-06-22T07:16:56;100167.38;;;19.40;100.00
31681;BME280;18281;51.364;9.566;2023-06-22T07:19:26;100171.03;;;19.49;100.00
31681;BME280;18281;51.364;9.566;2023-06-22T07:21:54;100168.09;;;19.42;100.00
31681;BME280;18281;51.364;9.566;2023-06-22T07:28:05;100159.41;;;19.79;100.00
31681;BME280;18281;51.364;9.566;2023-06-22T07:30:32;100163.91;;;19.79;100.00
31681;BME280;18281;51.364;9.566;2023-06-22T07:32:59;100161.38;;;19.67;100.00
31681;BME280;18281;51.364;9.566;2023-06-22T07:35:30;100158.13;;;19.93;100.00
31681;BME280;18281;51.364;9.566;2023-06-22T07:37:55;100151.53;;;19.97;100.00
31681;BME280;18281;51.364;9.566;2023-06-22T07:40:20;100155.84;;;20.08;100.00
31681;BME280;18281;51.364;9.566;2023-06-22T07:42:46;100153.44;;;20.05;100.00
31681;BME280;18281;51.364;9.566;2023-06-22T07:45:13;100150.09;;;20.03;100.00
31681;BME280;18281;51.364;9.566;2023-06-22T07:47:39;100153.34;;;20.06;100.00
31681;BME280;18281;51.364;9.566;2023-06-22T07:50:04;100159.97;;;20.30;100.00
31681;BME280;18281;51.364;9.566;2023-06-22T07:52:31;100156.63;;;20.38;100.00
31681;BME280;18281;51.364;9.566;2023-06-22T07:54:56;100163.56;;;20.58;100.00
31681;BME280;18281;51.364;9.566;2023-06-22T07:57:22;100161.28;;;20.64;100.00
31681;BME280;18281;51.364;9.566;2023-06-22T07:59:47;100168.88;;;20.68;100.00
31681;BME280;18281;51.364;9.566;2023-06-22T08:02:12;100158.72;;;20.72;100.00
31681;BME280;18281;51.364;9.566;2023-06-22T08:04:38;100158.34;;;20.67;100.00
31681;BME280;18281;51.364;9.566;2023-06-22T08:07:04;100154.16;;;20.82;100.00
31681;BME280;18281;51.364;9.566;2023-06-22T08:09:31;100145.19;;;20.83;100.00
31681;BME280;18281;51.364;9.566;2023-06-22T08:11:57;100151.41;;;21.02;100.00
31681;BME280;18281;51.364;9.566;2023-06-22T08:14:24;100148.03;;;21.00;100.00
31681;BME280;18281;51.364;9.566;2023-06-22T08:16:50;100142.53;;;21.11;100.00
31681;BME280;18281;51.364;9.566;2023-06-22T08:19:15;100141.63;;;21.20;100.00
31681;BME280;18281;51.364;9.566;2023-06-22T08:21:41;100136.34;;;21.29;100.00
31681;BME280;18281;51.364;9.566;2023-06-22T08:24:06;100127.09;;;21.41;100.00
31681;BME280;18281;51.364;9.566;2023-06-22T08:26:32;100125.34;;;21.50;100.00
31681;BME280;18281;51.364;9.566;2023-06-22T08:29:01;100105.97;;;21.48;100.00
31681;BME280;18281;51.364;9.566;2023-06-22T08:31:27;100112.88;;;21.58;100.00
31681;BME280;18281;51.364;9.566;2023-06-22T08:33:52;100110.28;;;21.85;100.00
31681;BME280;18281;51.364;9.566;2023-06-22T08:36:18;100109.91;;;21.80;100.00
31681;BME280;18281;51.364;9.566;2023-06-22T08:38:43;100108.44;;;21.85;100.00
31681;BME280;18281;51.364;9.566;2023-06-22T08:41:09;100104.16;;;21.92;100.00
31681;BME280;18281;51.364;9.566;2023-06-22T08:43:35;100101.31;;;21.94;100.00
31681;BME280;18281;51.364;9.566;2023-06-22T08:46:00;100103.88;;;22.04;100.00
31681;BME280;18281;51.364;9.566;2023-06-22T08:48:27;100108.81;;;22.17;100.00
31681;BME280;18281;51.364;9.566;2023-06-22T08:50:53;100101.66;;;22.25;100.00
31681;BME280;18281;51.364;9.566;2023-06-22T08:53:18;100103.75;;;22.14;100.00
31681;BME280;18281;51.364;9.566;2023-06-22T08:55:43;100104.75;;;22.39;100.00
31681;BME280;18281;51.364;9.566;2023-06-22T08:58:10;100100.97;;;22.23;100.00
31681;BME280;18281;51.364;9.566;2023-06-22T09:00:35;100096.78;;;22.55;100.00
31681;BME280;18281;51.364;9.566;2023-06-22T09:03:01;100101.34;;;22.71;100.00
31681;BME280;18281;51.364;9.566;2023-06-22T09:05:26;100088.13;;;22.70;100.00
31681;BME280;18281;51.364;9.566;2023-06-22T09:07:51;100072.78;;;22.88;100.00
31681;BME280;18281;51.364;9.566;2023-06-22T09:10:17;100070.63;;;23.00;100.00
31681;BME280;18281;51.364;9.566;2023-06-22T09:12:43;100068.94;;;22.99;100.00
31681;BME280;18281;51.364;9.566;2023-06-22T09:15:09;100062.41;;;22.93;100.00
31681;BME280;18281;51.364;9.566;2023-06-22T09:17:35;100057.88;;;22.94;100.00
31681;BME280;18281;51.364;9.566;2023-06-22T09:20:01;100054.13;;;23.13;100.00
31681;BME280;18281;51.364;9.566;2023-06-22T09:22:28;100058.22;;;22.99;100.00
31681;BME280;18281;51.364;9.566;2023-06-22T09:24:56;100057.41;;;22.90;100.00
31681;BME280;18281;51.364;9.566;2023-06-22T09:27:21;100052.56;;;23.02;100.00
31681;BME280;18281;51.364;9.566;2023-06-22T09:29:47;100050.56;;;23.13;100.00
31681;BME280;18281;51.364;9.566;2023-06-22T09:32:13;100050.56;;;23.21;100.00
31681;BME280;18281;51.364;9.566;2023-06-22T09:34:38;100057.13;;;23.35;100.00
31681;BME280;18281;51.364;9.566;2023-06-22T09:37:04;100048.06;;;23.36;100.00
31681;BME280;18281;51.364;9.566;2023-06-22T09:39:29;100040.03;;;23.19;100.00
31681;BME280;18281;51.364;9.566;2023-06-22T09:41:55;100048.22;;;23.51;100.00
31681;BME280;18281;51.364;9.566;2023-06-22T09:44:20;100045.19;;;23.62;100.00
31681;BME280;18281;51.364;9.566;2023-06-22T09:46:46;100043.81;;;23.83;100.00
31681;BME280;18281;51.364;9.566;2023-06-22T09:49:11;100038.25;;;24.01;100.00
31681;BME280;18281;51.364;9.566;2023-06-22T09:51:36;100035.28;;;23.87;100.00
31681;BME280;18281;51.364;9.566;2023-06-22T09:54:02;100027.16;;;24.04;100.00
31681;BME280;18281;51.364;9.566;2023-06-22T09:56:27;100021.84;;;23.96;100.00
31681;BME280;18281;51.364;9.566;2023-06-22T09:58:54;100021.75;;;24.12;100.00
31681;BME280;18281;51.364;9.566;2023-06-22T10:01:19;100020.13;;;24.11;100.00
31681;BME280;18281;51.364;9.566;2023-06-22T10:03:45;100017.75;;;24.08;100.00
31681;BME280;18281;51.364;9.566;2023-06-22T10:06:11;100014.28;;;23.99;100.00
31681;BME280;18281;51.364;9.566;2023-06-22T10:08:36;100015.06;;;24.08;100.00
31681;BME280;18281;51.364;9.566;2023-06-22T10:11:03;100009.53;;;24.18;100.00
31681;BME280;18281;51.364;9.566;2023-06-22T10:13:29;100012.56;;;24.06;100.00
31681;BME280;18281;51.364;9.566;2023-06-22T10:15:54;100018.38;;;24.26;100.00
31681;BME280;18281;51.364;9.566;2023-06-22T10:18:19;100010.16;;;24.20;100.00
31681;BME280;18281;51.364;9.566;2023-06-22T10:20:50;99998.44;;;24.21;100.00
31681;BME280;18281;51.364;9.566;2023-06-22T10:23:19;99998.78;;;24.18;100.00
31681;BME280;18281;51.364;9.566;2023-06-22T10:25:45;99998.53;;;24.36;100.00
31681;BME280;18281;51.364;9.566;2023-06-22T10:28:10;99995.63;;;24.46;100.00
31681;BME280;18281;51.364;9.566;2023-06-22T10:30:35;99994.66;;;24.70;100.00
31681;BME280;18281;51.364;9.566;2023-06-22T10:33:01;99979.91;;;24.66;100.00
31681;BME280;18281;51.364;9.566;2023-06-22T10:35:26;99991.31;;;24.68;100.00
31681;BME280;18281;51.364;9.566;2023-06-22T10:37:52;99982.53;;;24.74;100.00
31681;BME280;18281;51.364;9.566;2023-06-22T10:40:18;99978.78;;;24.83;99.15
31681;BME280;18281;51.364;9.566;2023-06-22T10:42:44;99980.34;;;25.01;100.00
31681;BME280;18281;51.364;9.566;2023-06-22T10:45:10;99969.94;;;24.98;97.19
31681;BME280;18281;51.364;9.566;2023-06-22T10:47:35;99974.75;;;24.87;95.34
31681;BME280;18281;51.364;9.566;2023-06-22T10:50:01;99971.88;;;24.89;98.07
31681;BME280;18281;51.364;9.566;2023-06-22T10:52:27;99970.97;;;24.97;96.69
31681;BME280;18281;51.364;9.566;2023-06-22T10:54:52;99965.34;;;24.83;93.22
31681;BME280;18281;51.364;9.566;2023-06-22T10:57:18;99957.84;;;24.55;92.26
31681;BME280;18281;51.364;9.566;2023-06-22T10:59:43;99952.34;;;24.72;95.16
31681;BME280;18281;51.364;9.566;2023-06-22T11:02:09;99957.97;;;24.62;91.04
31681;BME280;18281;51.364;9.566;2023-06-22T11:04:34;99960.50;;;24.79;92.96
31681;BME280;18281;51.364;9.566;2023-06-22T11:07:00;99949.50;;;24.97;94.11
31681;BME280;18281;51.364;9.566;2023-06-22T11:09:25;99949.31;;;24.98;90.91
31681;BME280;18281;51.364;9.566;2023-06-22T11:11:51;99945.34;;;25.09;91.05
31681;BME280;18281;51.364;9.566;2023-06-22T11:14:20;99948.84;;;24.95;89.57
31681;BME280;18281;51.364;9.566;2023-06-22T11:16:45;99934.59;;;25.09;91.19
31681;BME280;18281;51.364;9.566;2023-06-22T11:19:11;99930.44;;;25.21;90.54
31681;BME280;18281;51.364;9.566;2023-06-22T11:21:37;99925.06;;;25.06;90.60
31681;BME280;18281;51.364;9.566;2023-06-22T11:24:02;99923.28;;;25.14;88.70
31681;BME280;18281;51.364;9.566;2023-06-22T11:26:28;99911.53;;;25.30;89.07
31681;BME280;18281;51.364;9.566;2023-06-22T11:28:53;99915.19;;;25.37;90.26
31681;BME280;18281;51.364;9.566;2023-06-22T11:31:19;99918.88;;;25.36;90.85
31681;BME280;18281;51.364;9.566;2023-06-22T11:33:44;99905.81;;;25.63;90.51
31681;BME280;18281;51.364;9.566;2023-06-22T11:36:13;99899.41;;;25.79;91.58
31681;BME280;18281;51.364;9.566;2023-06-22T11:38:39;99879.63;;;25.86;90.65
31681;BME280;18281;51.364;9.566;2023-06-22T11:41:06;99877.03;;;25.78;90.98
31681;BME280;18281;51.364;9.566;2023-06-22T11:43:31;99872.78;;;25.84;89.99
31681;BME280;18281;51.364;9.566;2023-06-22T11:45:57;99865.22;;;25.94;87.52
31681;BME280;18281;51.364;9.566;2023-06-22T11:48:24;99870.34;;;26.04;89.53
31681;BME280;18281;51.364;9.566;2023-06-22T11:50:49;99875.44;;;25.99;87.20
31681;BME280;18281;51.364;9.566;2023-06-22T11:53:14;99870.78;;;26.07;85.99
31681;BME280;18281;51.364;9.566;2023-06-22T11:55:42;99858.50;;;25.83;81.43
31681;BME280;18281;51.364;9.566;2023-06-22T11:58:07;99856.16;;;25.58;80.38
31681;BME280;18281;51.364;9.566;2023-06-22T12:00:33;99850.28;;;25.70;79.43
31681;BME280;18281;51.364;9.566;2023-06-22T12:02:58;99842.34;;;25.83;80.71
31681;BME280;18281;51.364;9.566;2023-06-22T12:05:24;99832.00;;;25.80;80.96
31681;BME280;18281;51.364;9.566;2023-06-22T12:07:50;99831.06;;;26.09;81.60
31681;BME280;18281;51.364;9.566;2023-06-22T12:10:15;99824.47;;;26.34;78.64
31681;BME280;18281;51.364;9.566;2023-06-22T12:12:41;99817.28;;;26.41;77.94
31681;BME280;18281;51.364;9.566;2023-06-22T12:15:10;99803.44;;;26.44;78.67
31681;BME280;18281;51.364;9.566;2023-06-22T12:17:35;99798.22;;;26.14;77.11
31681;BME280;18281;51.364;9.566;2023-06-22T12:20:01;99800.47;;;26.11;77.00
31681;BME280;18281;51.364;9.566;2023-06-22T12:22:31;99795.44;;;26.29;76.76
31681;BME280;18281;51.364;9.566;2023-06-22T12:24:59;99801.03;;;26.06;75.66
31681;BME280;18281;51.364;9.566;2023-06-22T12:27:25;99795.97;;;26.46;78.18
31681;BME280;18281;51.364;9.566;2023-06-22T12:29:56;99803.84;;;26.48;77.59
31681;BME280;18281;51.364;9.566;2023-06-22T12:32:22;99797.59;;;26.40;76.61
31681;BME280;18281;51.364;9.566;2023-06-22T12:34:47;99806.84;;;26.31;78.94
31681;BME280;18281;51.364;9.566;2023-06-22T12:37:12;99801.50;;;26.38;79.78
31681;BME280;18281;51.364;9.566;2023-06-22T12:39:40;99800.59;;;26.52;79.76
31681;BME280;18281;51.364;9.566;2023-06-22T12:42:06;99796.56;;;26.63;76.99
31681;BME280;18281;51.364;9.566;2023-06-22T12:44:34;99795.72;;;26.63;76.23
31681;BME280;18281;51.364;9.566;2023-06-22T12:46:59;99786.00;;;26.62;77.46
31681;BME280;18281;51.364;9.566;2023-06-22T12:49:24;99782.97;;;26.50;78.43
31681;BME280;18281;51.364;9.566;2023-06-22T12:51:50;99787.47;;;26.64;76.81
31681;BME280;18281;51.364;9.566;2023-06-22T12:54:15;99784.63;;;26.72;77.33
31681;BME280;18281;51.364;9.566;2023-06-22T12:56:40;99769.91;;;26.75;78.56
31681;BME280;18281;51.364;9.566;2023-06-22T12:59:08;99761.81;;;26.68;78.58
31681;BME280;18281;51.364;9.566;2023-06-22T13:01:34;99762.16;;;26.94;79.25
31681;BME280;18281;51.364;9.566;2023-06-22T13:04:00;99760.88;;;26.89;78.91
31681;BME280;18281;51.364;9.566;2023-06-22T13:10:00;99732.69;;;27.27;80.84
31681;BME280;18281;51.364;9.566;2023-06-22T13:12:26;99728.13;;;27.28;78.91
31681;BME280;18281;51.364;9.566;2023-06-22T13:14:51;99734.53;;;27.33;78.76
31681;BME280;18281;51.364;9.566;2023-06-22T13:17:17;99717.38;;;27.41;79.48
31681;BME280;18281;51.364;9.566;2023-06-22T13:19:42;99713.22;;;27.45;79.97
31681;BME280;18281;51.364;9.566;2023-06-22T13:22:43;99698.06;;;27.44;80.92
31681;BME280;18281;51.364;9.566;2023-06-22T13:25:09;99695.81;;;27.41;80.27
31681;BME280;18281;51.364;9.566;2023-06-22T13:27:39;99687.69;;;27.34;80.09
31681;BME280;18281;51.364;9.566;2023-06-22T13:30:05;99688.91;;;27.18;77.96
31681;BME280;18281;51.364;9.566;2023-06-22T13:32:30;99691.84;;;27.37;80.51
31681;BME280;18281;51.364;9.566;2023-06-22T13:34:56;99691.41;;;27.27;78.25
31681;BME280;18281;51.364;9.566;2023-06-22T13:37:21;99693.13;;;27.48;80.43
31681;BME280;18281;51.364;9.566;2023-06-22T13:39:46;99688.16;;;27.58;80.42
31681;BME280;18281;51.364;9.566;2023-06-22T13:42:12;99689.16;;;27.37;80.18
31681;BME280;18281;51.364;9.566;2023-06-22T13:44:37;99680.88;;;27.45;80.23
31681;BME280;18281;51.364;9.566;2023-06-22T13:47:03;99686.78;;;27.07;79.09
31681;BME280;18281;51.364;9.566;2023-06-22T13:49:30;99691.25;;;26.86;78.87
31681;BME280;18281;51.364;9.566;2023-06-22T13:51:55;99699.03;;;26.68;78.97
31681;BME280;18281;51.364;9.566;2023-06-22T13:54:20;99687.94;;;26.84;80.01
31681;BME280;18281;51.364;9.566;2023-06-22T13:56:46;99661.47;;;26.59;79.04
31681;BME280;18281;51.364;9.566;2023-06-22T13:59:11;99636.03;;;26.62;79.47
31681;BME280;18281;51.364;9.566;2023-06-22T14:01:37;99595.88;;;26.61;80.97
31681;BME280;18281;51.364;9.566;2023-06-22T14:04:05;99562.56;;;26.26;80.34
31681;BME280;18281;51.364;9.566;2023-06-22T14:06:30;99530.44;;;26.18;80.50
31681;BME280;18281;51.364;9.566;2023-06-22T14:08:56;99559.88;;;26.26;80.76
31681;BME280;18281;51.364;9.566;2023-06-22T14:11:21;99592.97;;;26.20;80.67
31681;BME280;18281;51.364;9.566;2023-06-22T14:13:46;99595.59;;;26.07;80.87
31681;BME280;18281;51.364;9.566;2023-06-22T14:16:12;99592.63;;;26.02;80.78
31681;BME280;18281;51.364;9.566;2023-06-22T14:18:37;99566.41;;;25.82;81.85
31681;BME280;18281;51.364;9.566;2023-06-22T14:21:02;99569.59;;;25.92;81.69
31681;BME280;18281;51.364;9.566;2023-06-22T14:23:28;99585.94;;;25.91;81.59
31681;BME280;18281;51.364;9.566;2023-06-22T14:25:53;99579.19;;;25.73;82.43
31681;BME280;18281;51.364;9.566;2023-06-22T14:28:19;99529.13;;;25.72;82.24
31681;BME280;18281;51.364;9.566;2023-06-22T14:30:44;99446.03;;;25.78;82.56
31681;BME280;18281;51.364;9.566;2023-06-22T14:33:09;99475.91;;;25.96;82.90
31681;BME280;18281;51.364;9.566;2023-06-22T14:35:35;99523.19;;;25.77;83.17
31681;BME280;18281;51.364;9.566;2023-06-22T14:38:00;99591.31;;;25.63;83.30
31681;BME280;18281;51.364;9.566;2023-06-22T14:40:26;99903.97;;;25.33;83.92
31681;BME280;18281;51.364;9.566;2023-06-22T14:42:51;99924.03;;;24.46;86.93
31681;BME280;18281;51.364;9.566;2023-06-22T14:45:16;99956.00;;;24.24;89.10
31681;BME280;18281;51.364;9.566;2023-06-22T14:47:42;99901.91;;;23.41;89.48
31681;BME280;18281;51.364;9.566;2023-06-22T14:50:07;99819.03;;;22.26;90.02
31681;BME280;18281;51.364;9.566;2023-06-22T14:52:33;100197.31;;;21.69;92.69
31681;BME280;18281;51.364;9.566;2023-06-22T15:21:59;99686.34;;;22.08;100.00
31681;BME280;18281;51.364;9.566;2023-06-22T15:24:24;99734.97;;;22.12;99.17
31681;BME280;18281;51.364;9.566;2023-06-22T15:26:50;99719.69;;;21.55;100.00
31681;BME280;18281;51.364;9.566;2023-06-22T15:29:16;99712.19;;;21.67;100.00
31681;BME280;18281;51.364;9.566;2023-06-22T15:31:42;99705.09;;;21.75;100.00
31681;BME280;18281;51.364;9.566;2023-06-22T15:34:16;99710.59;;;21.99;98.88
31681;BME280;18281;51.364;9.566;2023-06-22T15:36:42;99705.41;;;21.97;99.14
31681;BME280;18281;51.364;9.566;2023-06-22T15:39:07;99708.25;;;21.96;98.66
31681;BME280;18281;51.364;9.566;2023-06-22T15:41:33;99686.38;;;21.92;99.01
31681;BME280;18281;51.364;9.566;2023-06-22T15:43:58;99669.00;;;21.88;100.00
31681;BME280;18281;51.364;9.566;2023-06-22T15:46:24;99649.13;;;21.82;100.00
31681;BME280;18281;51.364;9.566;2023-06-22T15:48:49;99652.28;;;21.77;100.00
31681;BME280;18281;51.364;9.566;2023-06-22T15:51:14;99643.63;;;21.75;100.00
31681;BME280;18281;51.364;9.566;2023-06-22T15:53:40;99625.28;;;21.72;100.00
31681;BME280;18281;51.364;9.566;2023-06-22T15:56:05;99623.88;;;21.68;100.00
31681;BME280;18281;51.364;9.566;2023-06-22T16:01:45;99606.88;;;21.61;100.00
31681;BME280;18281;51.364;9.566;2023-06-22T16:04:10;99602.84;;;21.57;100.00
31681;BME280;18281;51.364;9.566;2023-06-22T16:06:36;99588.00;;;21.54;100.00
31681;BME280;18281;51.364;9.566;2023-06-22T16:09:01;99574.13;;;21.51;100.00
31681;BME280;18281;51.364;9.566;2023-06-22T16:11:28;99563.81;;;21.48;100.00
31681;BME280;18281;51.364;9.566;2023-06-22T16:13:54;99584.81;;;21.42;100.00
31681;BME280;18281;51.364;9.566;2023-06-22T16:16:22;99574.31;;;21.41;100.00
31681;BME280;18281;51.364;9.566;2023-06-22T16:18:50;99577.66;;;21.43;100.00
31681;BME280;18281;51.364;9.566;2023-06-22T16:21:16;99575.66;;;21.37;100.00
31681;BME280;18281;51.364;9.566;2023-06-22T16:23:53;99545.44;;;21.28;100.00
31681;BME280;18281;51.364;9.566;2023-06-22T16:33:10;99469.88;;;21.11;100.00
31681;BME280;18281;51.364;9.566;2023-06-22T16:36:22;99475.53;;;21.08;100.00
31681;BME280;18281;51.364;9.566;2023-06-22T16:51:09;99506.91;;;21.06;100.00
31681;BME280;18281;51.364;9.566;2023-06-22T16:53:34;99509.22;;;20.92;100.00
31681;BME280;18281;51.364;9.566;2023-06-22T16:56:00;99501.19;;;20.92;100.00
31681;BME280;18281;51.364;9.566;2023-06-22T16:58:26;99509.03;;;21.02;100.00
31681;BME280;18281;51.364;9.566;2023-06-22T17:00:56;99499.19;;;20.94;100.00
31681;BME280;18281;51.364;9.566;2023-06-22T17:03:43;99502.53;;;20.80;100.00
31681;BME280;18281;51.364;9.566;2023-06-22T17:06:25;99503.19;;;20.74;100.00
31681;BME280;18281;51.364;9.566;2023-06-22T17:12:17;99494.47;;;20.55;100.00
31681;BME280;18281;51.364;9.566;2023-06-22T17:14:44;99494.47;;;20.47;100.00
31681;BME280;18281;51.364;9.566;2023-06-22T17:17:16;99473.47;;;20.52;100.00
31681;BME280;18281;51.364;9.566;2023-06-22T17:19:42;99445.47;;;20.56;100.00
31681;BME280;18281;51.364;9.566;2023-06-22T17:22:08;99435.31;;;20.60;100.00
31681;BME280;18281;51.364;9.566;2023-06-22T17:24:43;99430.00;;;20.60;100.00
31681;BME280;18281;51.364;9.566;2023-06-22T17:42:33;99659.25;;;19.99;100.00
31681;BME280;18281;51.364;9.566;2023-06-22T17:45:01;99629.47;;;19.96;100.00
31681;BME280;18281;51.364;9.566;2023-06-22T17:51:13;99644.16;;;19.82;100.00
31681;BME280;18281;51.364;9.566;2023-06-22T17:54:16;99636.00;;;19.83;100.00
31681;BME280;18281;51.364;9.566;2023-06-22T17:56:49;99648.03;;;19.87;100.00
31681;BME280;18281;51.364;9.566;2023-06-22T17:59:18;99667.00;;;19.84;100.00
31681;BME280;18281;51.364;9.566;2023-06-22T18:01:49;99675.34;;;19.71;100.00
31681;BME280;18281;51.364;9.566;2023-06-22T18:04:18;99670.94;;;19.80;100.00
31681;BME280;18281;51.364;9.566;2023-06-22T18:06:45;99702.38;;;19.76;100.00
31681;BME280;18281;51.364;9.566;2023-06-22T18:09:13;99744.75;;;19.70;100.00
31681;BME280;18281;51.364;9.566;2023-06-22T18:11:47;99825.81;;;19.30;100.00
31681;BME280;18281;51.364;9.566;2023-06-22T18:14:15;99862.22;;;18.91;100.00
31681;BME280;18281;51.364;9.566;2023-06-22T18:56:53;99585.53;;;19.19;100.00
31681;BME280;18281;51.364;9.566;2023-06-22T19:05:41;99579.28;;;19.10;100.00
31681;BME280;18281;51.364;9.566;2023-06-22T19:08:07;99571.63;;;19.07;100.00
31681;BME280;18281;51.364;9.566;2023-06-22T19:15:58;99573.06;;;19.02;100.00